sensor_id;sensor_type;location;lat;lon;timestamp;P1;durP1;ratioP1;P2;durP2;ratioP2
4748;SDS011;2388;53.582;9.962;2022-10-19T00:01:10;4.87;;;0.90;;
4748;SDS011;2388;53.582;9.962;2022-10-19T00:03:41;4.83;;;1.37;;
4748;SDS011;2388;53.582;9.962;2022-10-19T00:06:18;3.73;;;0.90;;
4748;SDS011;2388;53.582;9.962;2022-10-19T00:08:49;4.30;;;0.73;;
4748;SDS011;2388;53.582;9.962;2022-10-19T00:11:16;1.37;;;0.60;;
4748;SDS011;2388;53.582;9.962;2022-10-19T00:13:42;3.97;;;0.80;;
4748;SDS011;2388;53.582;9.962;2022-10-19T00:16:11;6.23;;;0.87;;
4748;SDS011;2388;53.582;9.962;2022-10-19T00:18:39;3.33;;;0.67;;
4748;SDS011;2388;53.582;9.962;2022-10-19T00:21:07;3.53;;;1.00;;
4748;SDS011;2388;53.582;9.962;2022-10-19T00:23:34;7.93;;;0.63;;
4748;SDS011;2388;53.582;9.962;2022-10-19T00:26:00;6.27;;;1.20;;
4748;SDS011;2388;53.582;9.962;2022-10-19T00:28:25;2.70;;;0.93;;
4748;SDS011;2388;53.582;9.962;2022-10-19T00:30:51;6.20;;;0.93;;
4748;SDS011;2388;53.582;9.962;2022-10-19T00:33:17;3.10;;;0.70;;
4748;SDS011;2388;53.582;9.962;2022-10-19T00:35:46;5.27;;;0.70;;
4748;SDS011;2388;53.582;9.962;2022-10-19T00:38:15;9.43;;;0.73;;
4748;SDS011;2388;53.582;9.962;2022-10-19T00:40:42;8.23;;;1.10;;
4748;SDS011;2388;53.582;9.962;2022-10-19T00:43:11;3.50;;;0.77;;
4748;SDS011;2388;53.582;9.962;2022-10-19T00:45:41;3.47;;;0.67;;
4748;SDS011;2388;53.582;9.962;2022-10-19T00:48:07;2.73;;;0.77;;
4748;SDS011;2388;53.582;9.962;2022-10-19T00:50:36;2.70;;;0.63;;
4748;SDS011;2388;53.582;9.962;2022-10-19T00:53:02;2.30;;;0.67;;
4748;SDS011;2388;53.582;9.962;2022-10-19T00:55:27;5.30;;;0.60;;
4748;SDS011;2388;53.582;9.962;2022-10-19T00:57:53;6.20;;;0.80;;
4748;SDS011;2388;53.582;9.962;2022-10-19T01:00:19;11.60;;;1.90;;
4748;SDS011;2388;53.582;9.962;2022-10-19T01:02:44;4.63;;;1.03;;
4748;SDS011;2388;53.582;9.962;2022-10-19T01:05:10;4.10;;;0.63;;
4748;SDS011;2388;53.582;9.962;2022-10-19T01:07:36;4.90;;;1.30;;
4748;SDS011;2388;53.582;9.962;2022-10-19T01:10:02;1.57;;;0.80;;
4748;SDS011;2388;53.582;9.962;2022-10-19T01:15:19;3.70;;;0.60;;
4748;SDS011;2388;53.582;9.962;2022-10-19T01:23:42;3.90;;;0.83;;
4748;SDS011;2388;53.582;9.962;2022-10-19T01:26:32;4.83;;;1.10;;
4748;SDS011;2388;53.582;9.962;2022-10-19T01:29:17;4.23;;;1.00;;
4748;SDS011;2388;53.582;9.962;2022-10-19T01:34:56;2.53;;;0.70;;
4748;SDS011;2388;53.582;9.962;2022-10-19T01:37:45;4.07;;;0.80;;
4748;SDS011;2388;53.582;9.962;2022-10-19T01:42:54;2.97;;;0.50;;
4748;SDS011;2388;53.582;9.962;2022-10-19T01:45:35;3.33;;;0.77;;
4748;SDS011;2388;53.582;9.962;2022-10-19T01:48:08;4.00;;;0.60;;
4748;SDS011;2388;53.582;9.962;2022-10-19T01:50:57;3.63;;;0.80;;
4748;SDS011;2388;53.582;9.962;2022-10-19T01:53:28;4.20;;;0.90;;
4748;SDS011;2388;53.582;9.962;2022-10-19T01:55:56;9.13;;;1.00;;
4748;SDS011;2388;53.582;9.962;2022-10-19T01:58:25;10.73;;;2.43;;
4748;SDS011;2388;53.582;9.962;2022-10-19T02:00:52;6.20;;;1.50;;
4748;SDS011;2388;53.582;9.962;2022-10-19T02:03:21;9.10;;;1.00;;
4748;SDS011;2388;53.582;9.962;2022-10-19T02:05:48;2.07;;;0.60;;
4748;SDS011;2388;53.582;9.962;2022-10-19T02:08:17;3.37;;;1.37;;
4748;SDS011;2388;53.582;9.962;2022-10-19T02:10:48;4.77;;;0.90;;
4748;SDS011;2388;53.582;9.962;2022-10-19T02:13:14;1.20;;;0.90;;
4748;SDS011;2388;53.582;9.962;2022-10-19T02:15:42;4.07;;;1.10;;
4748;SDS011;2388;53.582;9.962;2022-10-19T02:18:10;3.70;;;0.70;;
4748;SDS011;2388;53.582;9.962;2022-10-19T02:20:39;4.10;;;0.80;;
4748;SDS011;2388;53.582;9.962;2022-10-19T02:23:04;6.60;;;1.03;;
4748;SDS011;2388;53.582;9.962;2022-10-19T02:25:31;5.53;;;0.90;;
4748;SDS011;2388;53.582;9.962;2022-10-19T02:27:57;4.13;;;0.90;;
4748;SDS011;2388;53.582;9.962;2022-10-19T02:30:23;4.83;;;0.93;;
4748;SDS011;2388;53.582;9.962;2022-10-19T02:32:49;4.33;;;1.00;;
4748;SDS011;2388;53.582;9.962;2022-10-19T02:35:15;6.50;;;0.90;;
4748;SDS011;2388;53.582;9.962;2022-10-19T02:37:40;5.60;;;2.30;;
4748;SDS011;2388;53.582;9.962;2022-10-19T02:40:06;4.07;;;1.00;;
4748;SDS011;2388;53.582;9.962;2022-10-19T02:42:44;10.20;;;1.13;;
4748;SDS011;2388;53.582;9.962;2022-10-19T02:45:28;8.03;;;1.10;;
4748;SDS011;2388;53.582;9.962;2022-10-19T02:50:26;4.27;;;0.77;;
4748;SDS011;2388;53.582;9.962;2022-10-19T02:52:52;3.10;;;0.90;;
4748;SDS011;2388;53.582;9.962;2022-10-19T02:55:18;4.97;;;1.20;;
4748;SDS011;2388;53.582;9.962;2022-10-19T02:57:43;5.03;;;1.27;;
4748;SDS011;2388;53.582;9.962;2022-10-19T03:00:09;5.30;;;1.10;;
4748;SDS011;2388;53.582;9.962;2022-10-19T03:02:35;3.30;;;1.17;;
4748;SDS011;2388;53.582;9.962;2022-10-19T03:05:01;7.67;;;0.97;;
4748;SDS011;2388;53.582;9.962;2022-10-19T03:07:27;4.53;;;0.87;;
4748;SDS011;2388;53.582;9.962;2022-10-19T03:09:53;10.33;;;0.93;;
4748;SDS011;2388;53.582;9.962;2022-10-19T03:12:18;2.27;;;0.80;;
4748;SDS011;2388;53.582;9.962;2022-10-19T03:14:44;6.13;;;0.63;;
4748;SDS011;2388;53.582;9.962;2022-10-19T03:17:09;3.90;;;0.50;;
4748;SDS011;2388;53.582;9.962;2022-10-19T03:19:35;4.27;;;0.80;;
4748;SDS011;2388;53.582;9.962;2022-10-19T03:22:01;4.83;;;0.97;;
4748;SDS011;2388;53.582;9.962;2022-10-19T03:24:28;3.23;;;1.20;;
4748;SDS011;2388;53.582;9.962;2022-10-19T03:26:54;3.43;;;0.77;;
4748;SDS011;2388;53.582;9.962;2022-10-19T03:29:20;3.27;;;0.60;;
4748;SDS011;2388;53.582;9.962;2022-10-19T03:31:45;4.80;;;1.20;;
4748;SDS011;2388;53.582;9.962;2022-10-19T03:34:11;5.60;;;1.50;;
4748;SDS011;2388;53.582;9.962;2022-10-19T03:36:37;2.80;;;1.00;;
4748;SDS011;2388;53.582;9.962;2022-10-19T03:39:05;2.30;;;0.80;;
4748;SDS011;2388;53.582;9.962;2022-10-19T03:41:33;2.90;;;0.70;;
4748;SDS011;2388;53.582;9.962;2022-10-19T03:43:59;3.13;;;1.00;;
4748;SDS011;2388;53.582;9.962;2022-10-19T03:46:25;3.37;;;1.13;;
4748;SDS011;2388;53.582;9.962;2022-10-19T03:48:51;2.90;;;0.80;;
4748;SDS011;2388;53.582;9.962;2022-10-19T03:51:18;1.90;;;0.50;;
4748;SDS011;2388;53.582;9.962;2022-10-19T03:53:45;3.40;;;0.77;;
4748;SDS011;2388;53.582;9.962;2022-10-19T03:56:15;1.63;;;0.73;;
4748;SDS011;2388;53.582;9.962;2022-10-19T03:58:43;2.57;;;0.50;;
4748;SDS011;2388;53.582;9.962;2022-10-19T04:01:19;5.13;;;0.93;;
4748;SDS011;2388;53.582;9.962;2022-10-19T04:03:57;2.30;;;0.53;;
4748;SDS011;2388;53.582;9.962;2022-10-19T04:06:28;7.10;;;1.67;;
4748;SDS011;2388;53.582;9.962;2022-10-19T04:08:55;1.80;;;0.80;;
4748;SDS011;2388;53.582;9.962;2022-10-19T04:11:22;2.60;;;0.73;;
4748;SDS011;2388;53.582;9.962;2022-10-19T04:13:50;4.33;;;1.13;;
4748;SDS011;2388;53.582;9.962;2022-10-19T04:16:16;4.43;;;0.90;;
4748;SDS011;2388;53.582;9.962;2022-10-19T04:18:42;7.97;;;0.77;;
4748;SDS011;2388;53.582;9.962;2022-10-19T04:21:16;3.30;;;1.40;;
4748;SDS011;2388;53.582;9.962;2022-10-19T04:23:48;7.67;;;0.90;;
4748;SDS011;2388;53.582;9.962;2022-10-19T04:26:15;5.20;;;0.97;;
4748;SDS011;2388;53.582;9.962;2022-10-19T04:28:41;5.97;;;2.40;;
4748;SDS011;2388;53.582;9.962;2022-10-19T04:31:06;3.10;;;0.77;;
4748;SDS011;2388;53.582;9.962;2022-10-19T04:33:32;3.83;;;0.90;;
4748;SDS011;2388;53.582;9.962;2022-10-19T04:36:03;4.00;;;1.13;;
4748;SDS011;2388;53.582;9.962;2022-10-19T04:38:31;2.50;;;0.70;;
4748;SDS011;2388;53.582;9.962;2022-10-19T04:41:04;4.73;;;1.13;;
4748;SDS011;2388;53.582;9.962;2022-10-19T04:43:34;2.80;;;0.60;;
4748;SDS011;2388;53.582;9.962;2022-10-19T04:46:03;3.30;;;0.87;;
4748;SDS011;2388;53.582;9.962;2022-10-19T04:48:30;3.30;;;0.90;;
4748;SDS011;2388;53.582;9.962;2022-10-19T04:50:57;12.00;;;1.17;;
4748;SDS011;2388;53.582;9.962;2022-10-19T04:53:23;1.73;;;0.80;;
4748;SDS011;2388;53.582;9.962;2022-10-19T04:55:48;2.87;;;1.53;;
4748;SDS011;2388;53.582;9.962;2022-10-19T04:58:14;3.83;;;0.90;;
4748;SDS011;2388;53.582;9.962;2022-10-19T05:00:40;6.47;;;0.83;;
4748;SDS011;2388;53.582;9.962;2022-10-19T05:03:05;7.53;;;0.90;;
4748;SDS011;2388;53.582;9.962;2022-10-19T05:05:31;2.60;;;0.73;;
4748;SDS011;2388;53.582;9.962;2022-10-19T05:07:57;7.50;;;1.00;;
4748;SDS011;2388;53.582;9.962;2022-10-19T05:10:22;7.97;;;1.50;;
4748;SDS011;2388;53.582;9.962;2022-10-19T05:12:48;6.83;;;1.23;;
4748;SDS011;2388;53.582;9.962;2022-10-19T05:15:13;14.23;;;1.63;;
4748;SDS011;2388;53.582;9.962;2022-10-19T05:17:39;7.20;;;1.20;;
4748;SDS011;2388;53.582;9.962;2022-10-19T05:20:04;6.13;;;0.93;;
4748;SDS011;2388;53.582;9.962;2022-10-19T05:22:30;5.87;;;1.30;;
4748;SDS011;2388;53.582;9.962;2022-10-19T05:24:56;6.90;;;1.00;;
4748;SDS011;2388;53.582;9.962;2022-10-19T05:27:21;3.10;;;0.97;;
4748;SDS011;2388;53.582;9.962;2022-10-19T05:29:47;5.13;;;1.03;;
4748;SDS011;2388;53.582;9.962;2022-10-19T05:32:12;5.20;;;1.03;;
4748;SDS011;2388;53.582;9.962;2022-10-19T05:34:38;10.20;;;2.37;;
4748;SDS011;2388;53.582;9.962;2022-10-19T05:37:03;4.17;;;1.77;;
4748;SDS011;2388;53.582;9.962;2022-10-19T05:39:29;4.53;;;1.13;;
4748;SDS011;2388;53.582;9.962;2022-10-19T05:41:54;6.63;;;0.93;;
4748;SDS011;2388;53.582;9.962;2022-10-19T05:44:21;3.43;;;1.13;;
4748;SDS011;2388;53.582;9.962;2022-10-19T05:46:47;5.50;;;1.00;;
4748;SDS011;2388;53.582;9.962;2022-10-19T05:49:14;3.67;;;0.90;;
4748;SDS011;2388;53.582;9.962;2022-10-19T05:51:41;2.60;;;1.07;;
4748;SDS011;2388;53.582;9.962;2022-10-19T05:54:07;4.70;;;1.03;;
4748;SDS011;2388;53.582;9.962;2022-10-19T05:56:33;8.73;;;1.33;;
4748;SDS011;2388;53.582;9.962;2022-10-19T05:59:00;4.90;;;1.10;;
4748;SDS011;2388;53.582;9.962;2022-10-19T06:01:28;7.03;;;1.30;;
4748;SDS011;2388;53.582;9.962;2022-10-19T06:03:54;5.10;;;1.07;;
4748;SDS011;2388;53.582;9.962;2022-10-19T06:06:21;8.20;;;1.30;;
4748;SDS011;2388;53.582;9.962;2022-10-19T06:08:47;7.40;;;1.00;;
4748;SDS011;2388;53.582;9.962;2022-10-19T06:11:15;6.03;;;1.30;;
4748;SDS011;2388;53.582;9.962;2022-10-19T06:13:42;7.70;;;1.33;;
4748;SDS011;2388;53.582;9.962;2022-10-19T06:16:10;7.97;;;0.97;;
4748;SDS011;2388;53.582;9.962;2022-10-19T06:18:37;6.87;;;0.93;;
4748;SDS011;2388;53.582;9.962;2022-10-19T06:21:04;8.90;;;2.30;;
4748;SDS011;2388;53.582;9.962;2022-10-19T06:23:32;5.77;;;1.10;;
4748;SDS011;2388;53.582;9.962;2022-10-19T06:25:58;11.50;;;1.63;;
4748;SDS011;2388;53.582;9.962;2022-10-19T06:28:25;7.23;;;2.00;;
4748;SDS011;2388;53.582;9.962;2022-10-19T06:30:51;7.67;;;1.60;;
4748;SDS011;2388;53.582;9.962;2022-10-19T06:33:16;2.33;;;0.73;;
4748;SDS011;2388;53.582;9.962;2022-10-19T06:35:42;1.47;;;0.93;;
4748;SDS011;2388;53.582;9.962;2022-10-19T06:38:08;1.60;;;0.80;;
4748;SDS011;2388;53.582;9.962;2022-10-19T06:40:34;10.03;;;1.30;;
4748;SDS011;2388;53.582;9.962;2022-10-19T06:43:00;8.90;;;1.80;;
4748;SDS011;2388;53.582;9.962;2022-10-19T06:45:26;6.93;;;1.30;;
4748;SDS011;2388;53.582;9.962;2022-10-19T06:47:51;8.50;;;1.60;;
4748;SDS011;2388;53.582;9.962;2022-10-19T06:50:17;8.83;;;1.07;;
4748;SDS011;2388;53.582;9.962;2022-10-19T06:52:44;10.23;;;1.30;;
4748;SDS011;2388;53.582;9.962;2022-10-19T06:55:10;11.00;;;1.50;;
4748;SDS011;2388;53.582;9.962;2022-10-19T06:57:36;5.27;;;1.23;;
4748;SDS011;2388;53.582;9.962;2022-10-19T07:00:01;3.83;;;1.47;;
4748;SDS011;2388;53.582;9.962;2022-10-19T07:02:28;6.30;;;1.23;;
4748;SDS011;2388;53.582;9.962;2022-10-19T07:04:53;7.23;;;1.20;;
4748;SDS011;2388;53.582;9.962;2022-10-19T07:07:19;6.70;;;1.37;;
4748;SDS011;2388;53.582;9.962;2022-10-19T07:09:44;3.53;;;1.20;;
4748;SDS011;2388;53.582;9.962;2022-10-19T07:12:12;5.70;;;1.57;;
4748;SDS011;2388;53.582;9.962;2022-10-19T07:14:37;12.83;;;1.30;;
4748;SDS011;2388;53.582;9.962;2022-10-19T07:17:04;3.37;;;0.97;;
4748;SDS011;2388;53.582;9.962;2022-10-19T07:19:30;10.30;;;2.00;;
4748;SDS011;2388;53.582;9.962;2022-10-19T07:21:56;7.03;;;1.37;;
4748;SDS011;2388;53.582;9.962;2022-10-19T07:24:22;13.87;;;3.13;;
4748;SDS011;2388;53.582;9.962;2022-10-19T07:26:47;15.50;;;6.67;;
4748;SDS011;2388;53.582;9.962;2022-10-19T07:29:13;14.97;;;6.20;;
4748;SDS011;2388;53.582;9.962;2022-10-19T07:31:38;13.97;;;3.90;;
4748;SDS011;2388;53.582;9.962;2022-10-19T07:34:04;6.80;;;2.17;;
4748;SDS011;2388;53.582;9.962;2022-10-19T07:36:31;4.37;;;1.40;;
4748;SDS011;2388;53.582;9.962;2022-10-19T07:38:57;4.90;;;1.23;;
4748;SDS011;2388;53.582;9.962;2022-10-19T07:41:25;2.30;;;0.80;;
4748;SDS011;2388;53.582;9.962;2022-10-19T07:43:51;3.33;;;0.97;;
4748;SDS011;2388;53.582;9.962;2022-10-19T07:46:17;3.27;;;0.97;;
4748;SDS011;2388;53.582;9.962;2022-10-19T07:48:45;4.60;;;1.30;;
4748;SDS011;2388;53.582;9.962;2022-10-19T07:51:11;8.40;;;1.10;;
4748;SDS011;2388;53.582;9.962;2022-10-19T07:53:39;13.23;;;2.10;;
4748;SDS011;2388;53.582;9.962;2022-10-19T07:58:31;4.53;;;1.27;;
4748;SDS011;2388;53.582;9.962;2022-10-19T08:00:59;6.30;;;1.13;;
4748;SDS011;2388;53.582;9.962;2022-10-19T08:03:29;4.27;;;1.10;;
4748;SDS011;2388;53.582;9.962;2022-10-19T08:06:00;7.23;;;1.40;;
4748;SDS011;2388;53.582;9.962;2022-10-19T08:08:27;4.63;;;1.00;;
4748;SDS011;2388;53.582;9.962;2022-10-19T08:10:54;9.00;;;1.00;;
4748;SDS011;2388;53.582;9.962;2022-10-19T08:13:19;4.37;;;1.17;;
4748;SDS011;2388;53.582;9.962;2022-10-19T08:15:45;6.90;;;1.30;;
4748;SDS011;2388;53.582;9.962;2022-10-19T08:18:10;5.23;;;1.47;;
4748;SDS011;2388;53.582;9.962;2022-10-19T08:20:39;14.50;;;1.67;;
4748;SDS011;2388;53.582;9.962;2022-10-19T08:23:05;5.33;;;1.27;;
4748;SDS011;2388;53.582;9.962;2022-10-19T08:25:30;10.10;;;1.20;;
4748;SDS011;2388;53.582;9.962;2022-10-19T08:27:56;6.70;;;0.90;;
4748;SDS011;2388;53.582;9.962;2022-10-19T08:30:21;6.60;;;1.10;;
4748;SDS011;2388;53.582;9.962;2022-10-19T08:32:47;6.73;;;2.23;;
4748;SDS011;2388;53.582;9.962;2022-10-19T08:35:12;4.87;;;1.50;;
4748;SDS011;2388;53.582;9.962;2022-10-19T08:37:38;8.13;;;1.37;;
4748;SDS011;2388;53.582;9.962;2022-10-19T08:40:03;5.43;;;0.90;;
4748;SDS011;2388;53.582;9.962;2022-10-19T08:43:12;4.10;;;1.23;;
4748;SDS011;2388;53.582;9.962;2022-10-19T08:50:48;2.77;;;0.97;;
4748;SDS011;2388;53.582;9.962;2022-10-19T08:55:47;4.17;;;1.43;;
4748;SDS011;2388;53.582;9.962;2022-10-19T08:58:29;7.30;;;0.90;;
4748;SDS011;2388;53.582;9.962;2022-10-19T09:01:06;4.87;;;1.40;;
4748;SDS011;2388;53.582;9.962;2022-10-19T09:04:01;8.67;;;1.50;;
4748;SDS011;2388;53.582;9.962;2022-10-19T09:06:31;14.00;;;1.77;;
4748;SDS011;2388;53.582;9.962;2022-10-19T09:09:03;6.30;;;1.17;;
4748;SDS011;2388;53.582;9.962;2022-10-19T09:11:31;3.90;;;0.70;;
4748;SDS011;2388;53.582;9.962;2022-10-19T09:14:09;6.77;;;1.33;;
4748;SDS011;2388;53.582;9.962;2022-10-19T09:16:59;10.30;;;1.50;;
4748;SDS011;2388;53.582;9.962;2022-10-19T09:19:34;5.27;;;1.40;;
4748;SDS011;2388;53.582;9.962;2022-10-19T09:22:18;6.10;;;0.93;;
4748;SDS011;2388;53.582;9.962;2022-10-19T09:24:47;6.50;;;0.93;;
4748;SDS011;2388;53.582;9.962;2022-10-19T09:27:21;8.87;;;1.50;;
4748;SDS011;2388;53.582;9.962;2022-10-19T09:29:58;4.77;;;1.57;;
4748;SDS011;2388;53.582;9.962;2022-10-19T09:32:34;9.43;;;1.00;;
4748;SDS011;2388;53.582;9.962;2022-10-19T09:37:56;5.07;;;0.87;;
4748;SDS011;2388;53.582;9.962;2022-10-19T09:40:23;4.63;;;1.17;;
4748;SDS011;2388;53.582;9.962;2022-10-19T09:42:51;6.30;;;1.13;;
4748;SDS011;2388;53.582;9.962;2022-10-19T09:45:43;8.83;;;1.13;;
4748;SDS011;2388;53.582;9.962;2022-10-19T09:51:12;5.20;;;1.17;;
4748;SDS011;2388;53.582;9.962;2022-10-19T09:53:59;2.63;;;0.70;;
4748;SDS011;2388;53.582;9.962;2022-10-19T09:56:25;9.40;;;1.47;;
4748;SDS011;2388;53.582;9.962;2022-10-19T09:58:52;6.73;;;1.60;;
4748;SDS011;2388;53.582;9.962;2022-10-19T10:01:32;6.90;;;2.90;;
4748;SDS011;2388;53.582;9.962;2022-10-19T10:04:06;9.67;;;5.30;;
4748;SDS011;2388;53.582;9.962;2022-10-19T10:06:33;5.83;;;2.93;;
4748;SDS011;2388;53.582;9.962;2022-10-19T10:09:00;9.03;;;4.30;;
4748;SDS011;2388;53.582;9.962;2022-10-19T10:11:28;6.60;;;2.20;;
4748;SDS011;2388;53.582;9.962;2022-10-19T10:13:56;5.70;;;2.40;;
4748;SDS011;2388;53.582;9.962;2022-10-19T10:16:28;5.93;;;1.90;;
4748;SDS011;2388;53.582;9.962;2022-10-19T10:19:02;5.90;;;1.43;;
4748;SDS011;2388;53.582;9.962;2022-10-19T10:21:46;11.40;;;1.20;;
4748;SDS011;2388;53.582;9.962;2022-10-19T10:24:20;8.73;;;1.23;;
4748;SDS011;2388;53.582;9.962;2022-10-19T10:26:51;6.33;;;1.10;;
4748;SDS011;2388;53.582;9.962;2022-10-19T10:29:20;1.40;;;1.23;;
4748;SDS011;2388;53.582;9.962;2022-10-19T10:31:51;6.97;;;2.03;;
4748;SDS011;2388;53.582;9.962;2022-10-19T10:36:57;4.63;;;1.10;;
4748;SDS011;2388;53.582;9.962;2022-10-19T10:39:22;2.23;;;0.70;;
4748;SDS011;2388;53.582;9.962;2022-10-19T10:41:52;5.17;;;1.23;;
4748;SDS011;2388;53.582;9.962;2022-10-19T10:44:18;7.00;;;1.30;;
4748;SDS011;2388;53.582;9.962;2022-10-19T10:46:49;4.30;;;1.20;;
4748;SDS011;2388;53.582;9.962;2022-10-19T10:49:16;8.57;;;1.80;;
4748;SDS011;2388;53.582;9.962;2022-10-19T10:51:47;7.10;;;1.53;;
4748;SDS011;2388;53.582;9.962;2022-10-19T10:54:34;3.80;;;1.70;;
4748;SDS011;2388;53.582;9.962;2022-10-19T10:59:38;10.43;;;4.40;;
4748;SDS011;2388;53.582;9.962;2022-10-19T11:02:35;6.40;;;2.57;;
4748;SDS011;2388;53.582;9.962;2022-10-19T11:05:17;8.57;;;3.30;;
4748;SDS011;2388;53.582;9.962;2022-10-19T11:07:44;9.17;;;2.30;;
4748;SDS011;2388;53.582;9.962;2022-10-19T11:12:57;4.20;;;1.30;;
4748;SDS011;2388;53.582;9.962;2022-10-19T11:15:32;3.50;;;1.40;;
4748;SDS011;2388;53.582;9.962;2022-10-19T11:18:05;6.53;;;1.50;;
4748;SDS011;2388;53.582;9.962;2022-10-19T11:20:41;1.87;;;0.60;;
4748;SDS011;2388;53.582;9.962;2022-10-19T11:23:34;7.73;;;1.03;;
4748;SDS011;2388;53.582;9.962;2022-10-19T11:26:25;6.13;;;1.00;;
4748;SDS011;2388;53.582;9.962;2022-10-19T11:29:20;3.90;;;1.57;;
4748;SDS011;2388;53.582;9.962;2022-10-19T11:31:52;4.50;;;1.23;;
4748;SDS011;2388;53.582;9.962;2022-10-19T11:34:43;8.30;;;1.00;;
4748;SDS011;2388;53.582;9.962;2022-10-19T11:37:17;2.40;;;1.00;;
4748;SDS011;2388;53.582;9.962;2022-10-19T11:39:57;3.63;;;1.03;;
4748;SDS011;2388;53.582;9.962;2022-10-19T11:47:59;5.63;;;1.07;;
4748;SDS011;2388;53.582;9.962;2022-10-19T11:50:48;2.63;;;1.20;;
4748;SDS011;2388;53.582;9.962;2022-10-19T11:53:22;3.63;;;1.17;;
4748;SDS011;2388;53.582;9.962;2022-10-19T11:56:15;2.70;;;1.37;;
4748;SDS011;2388;53.582;9.962;2022-10-19T11:58:57;3.03;;;1.10;;
4748;SDS011;2388;53.582;9.962;2022-10-19T12:02:01;7.17;;;1.27;;
4748;SDS011;2388;53.582;9.962;2022-10-19T12:13:01;6.63;;;4.03;;
4748;SDS011;2388;53.582;9.962;2022-10-19T12:15:37;7.10;;;4.80;;
4748;SDS011;2388;53.582;9.962;2022-10-19T12:21:06;4.13;;;1.83;;
4748;SDS011;2388;53.582;9.962;2022-10-19T12:23:42;3.73;;;1.40;;
4748;SDS011;2388;53.582;9.962;2022-10-19T12:26:10;4.27;;;1.60;;
4748;SDS011;2388;53.582;9.962;2022-10-19T12:28:40;2.23;;;1.50;;
4748;SDS011;2388;53.582;9.962;2022-10-19T12:31:10;2.07;;;1.07;;
4748;SDS011;2388;53.582;9.962;2022-10-19T12:49:36;3.60;;;1.03;;
4748;SDS011;2388;53.582;9.962;2022-10-19T12:52:07;2.87;;;1.43;;
4748;SDS011;2388;53.582;9.962;2022-10-19T12:54:34;5.30;;;1.50;;
4748;SDS011;2388;53.582;9.962;2022-10-19T12:57:02;4.20;;;0.47;;
4748;SDS011;2388;53.582;9.962;2022-10-19T12:59:42;2.10;;;0.53;;
4748;SDS011;2388;53.582;9.962;2022-10-19T13:02:21;2.00;;;0.50;;
4748;SDS011;2388;53.582;9.962;2022-10-19T13:04:53;0.70;;;0.60;;
4748;SDS011;2388;53.582;9.962;2022-10-19T13:07:18;3.70;;;1.10;;
4748;SDS011;2388;53.582;9.962;2022-10-19T13:09:45;3.80;;;0.70;;
4748;SDS011;2388;53.582;9.962;2022-10-19T13:14:44;1.63;;;0.70;;
4748;SDS011;2388;53.582;9.962;2022-10-19T13:23:35;2.10;;;0.57;;
4748;SDS011;2388;53.582;9.962;2022-10-19T13:25:33;1.67;;;0.80;;
4748;SDS011;2388;53.582;9.962;2022-10-19T13:38:23;2.80;;;0.83;;
4748;SDS011;2388;53.582;9.962;2022-10-19T13:43:16;2.10;;;1.70;;
4748;SDS011;2388;53.582;9.962;2022-10-19T13:45:52;14.27;;;10.60;;
4748;SDS011;2388;53.582;9.962;2022-10-19T13:48:42;5.77;;;4.00;;
4748;SDS011;2388;53.582;9.962;2022-10-19T13:51:44;2.30;;;1.43;;
4748;SDS011;2388;53.582;9.962;2022-10-19T14:00:34;1.00;;;0.60;;
4748;SDS011;2388;53.582;9.962;2022-10-19T14:03:24;2.93;;;0.70;;
4748;SDS011;2388;53.582;9.962;2022-10-19T14:06:18;3.30;;;0.70;;
4748;SDS011;2388;53.582;9.962;2022-10-19T14:11:14;7.17;;;0.50;;
4748;SDS011;2388;53.582;9.962;2022-10-19T14:13:43;1.10;;;0.50;;
4748;SDS011;2388;53.582;9.962;2022-10-19T14:16:16;2.97;;;1.13;;
4748;SDS011;2388;53.582;9.962;2022-10-19T14:18:42;1.67;;;0.40;;
4748;SDS011;2388;53.582;9.962;2022-10-19T14:21:08;2.90;;;0.60;;
4748;SDS011;2388;53.582;9.962;2022-10-19T14:23:35;1.50;;;1.00;;
4748;SDS011;2388;53.582;9.962;2022-10-19T14:28:31;1.60;;;0.80;;
4748;SDS011;2388;53.582;9.962;2022-10-19T14:31:01;3.77;;;0.77;;
4748;SDS011;2388;53.582;9.962;2022-10-19T14:33:33;1.30;;;0.63;;
4748;SDS011;2388;53.582;9.962;2022-10-19T14:36:02;3.57;;;0.50;;
4748;SDS011;2388;53.582;9.962;2022-10-19T14:38:36;1.53;;;0.60;;
4748;SDS011;2388;53.582;9.962;2022-10-19T14:41:04;3.53;;;0.97;;
4748;SDS011;2388;53.582;9.962;2022-10-19T14:43:41;1.37;;;0.80;;
4748;SDS011;2388;53.582;9.962;2022-10-19T14:48:33;1.60;;;0.50;;
4748;SDS011;2388;53.582;9.962;2022-10-19T14:51:00;1.10;;;0.60;;
4748;SDS011;2388;53.582;9.962;2022-10-19T14:55:54;1.00;;;0.50;;
4748;SDS011;2388;53.582;9.962;2022-10-19T14:58:24;1.20;;;0.60;;
4748;SDS011;2388;53.582;9.962;2022-10-19T15:00:52;0.97;;;0.50;;
4748;SDS011;2388;53.582;9.962;2022-10-19T15:03:23;1.63;;;0.60;;
4748;SDS011;2388;53.582;9.962;2022-10-19T15:05:54;0.77;;;0.43;;
4748;SDS011;2388;53.582;9.962;2022-10-19T15:08:29;2.43;;;0.43;;
4748;SDS011;2388;53.582;9.962;2022-10-19T15:10:57;1.33;;;0.40;;
4748;SDS011;2388;53.582;9.962;2022-10-19T15:20:15;1.33;;;0.60;;
4748;SDS011;2388;53.582;9.962;2022-10-19T15:22:48;1.47;;;0.43;;
4748;SDS011;2388;53.582;9.962;2022-10-19T15:27:40;2.90;;;0.80;;
4748;SDS011;2388;53.582;9.962;2022-10-19T15:32:51;1.53;;;0.70;;
4748;SDS011;2388;53.582;9.962;2022-10-19T15:35:28;1.60;;;0.40;;
4748;SDS011;2388;53.582;9.962;2022-10-19T15:38:00;0.60;;;0.50;;
4748;SDS011;2388;53.582;9.962;2022-10-19T15:40:42;0.73;;;0.47;;
4748;SDS011;2388;53.582;9.962;2022-10-19T15:51:08;2.33;;;0.70;;
4748;SDS011;2388;53.582;9.962;2022-10-19T15:53:50;0.80;;;0.60;;
4748;SDS011;2388;53.582;9.962;2022-10-19T15:56:17;1.73;;;0.60;;
4748;SDS011;2388;53.582;9.962;2022-10-19T15:58:43;1.93;;;0.50;;
4748;SDS011;2388;53.582;9.962;2022-10-19T16:01:15;0.70;;;0.40;;
4748;SDS011;2388;53.582;9.962;2022-10-19T16:03:43;1.70;;;0.43;;
4748;SDS011;2388;53.582;9.962;2022-10-19T16:06:09;1.43;;;0.50;;
4748;SDS011;2388;53.582;9.962;2022-10-19T16:08:34;1.20;;;0.40;;
4748;SDS011;2388;53.582;9.962;2022-10-19T16:11:00;0.80;;;0.60;;
4748;SDS011;2388;53.582;9.962;2022-10-19T16:13:25;1.57;;;1.13;;
4748;SDS011;2388;53.582;9.962;2022-10-19T16:15:51;0.83;;;0.50;;
4748;SDS011;2388;53.582;9.962;2022-10-19T16:18:22;2.27;;;0.73;;
4748;SDS011;2388;53.582;9.962;2022-10-19T16:20:48;1.50;;;0.73;;
4748;SDS011;2388;53.582;9.962;2022-10-19T16:23:13;1.17;;;0.50;;
4748;SDS011;2388;53.582;9.962;2022-10-19T16:25:39;0.60;;;0.50;;
4748;SDS011;2388;53.582;9.962;2022-10-19T16:28:04;1.10;;;1.00;;
4748;SDS011;2388;53.582;9.962;2022-10-19T16:30:30;1.57;;;0.50;;
4748;SDS011;2388;53.582;9.962;2022-10-19T16:32:56;1.13;;;0.77;;
4748;SDS011;2388;53.582;9.962;2022-10-19T16:35:21;0.87;;;0.63;;
4748;SDS011;2388;53.582;9.962;2022-10-19T16:37:47;5.90;;;4.93;;
4748;SDS011;2388;53.582;9.962;2022-10-19T16:40:13;5.80;;;4.93;;
4748;SDS011;2388;53.582;9.962;2022-10-19T16:42:38;15.23;;;8.30;;
4748;SDS011;2388;53.582;9.962;2022-10-19T16:45:04;6.07;;;3.60;;
4748;SDS011;2388;53.582;9.962;2022-10-19T16:47:30;1.77;;;1.03;;
4748;SDS011;2388;53.582;9.962;2022-10-19T16:49:56;1.43;;;0.87;;
4748;SDS011;2388;53.582;9.962;2022-10-19T16:52:24;0.80;;;0.70;;
4748;SDS011;2388;53.582;9.962;2022-10-19T16:54:50;1.93;;;0.50;;
4748;SDS011;2388;53.582;9.962;2022-10-19T16:57:16;1.60;;;0.90;;
4748;SDS011;2388;53.582;9.962;2022-10-19T16:59:42;2.40;;;1.00;;
4748;SDS011;2388;53.582;9.962;2022-10-19T17:02:08;1.20;;;0.80;;
4748;SDS011;2388;53.582;9.962;2022-10-19T17:04:34;1.93;;;1.03;;
4748;SDS011;2388;53.582;9.962;2022-10-19T17:07:00;1.60;;;1.00;;
4748;SDS011;2388;53.582;9.962;2022-10-19T17:09:25;1.80;;;0.90;;
4748;SDS011;2388;53.582;9.962;2022-10-19T17:11:51;1.30;;;1.20;;
4748;SDS011;2388;53.582;9.962;2022-10-19T17:14:16;2.40;;;0.90;;
4748;SDS011;2388;53.582;9.962;2022-10-19T17:16:42;0.80;;;0.70;;
4748;SDS011;2388;53.582;9.962;2022-10-19T17:19:08;2.30;;;0.80;;
4748;SDS011;2388;53.582;9.962;2022-10-19T17:21:35;1.50;;;0.87;;
4748;SDS011;2388;53.582;9.962;2022-10-19T17:24:03;2.70;;;1.00;;
4748;SDS011;2388;53.582;9.962;2022-10-19T17:26:30;1.93;;;0.80;;
4748;SDS011;2388;53.582;9.962;2022-10-19T17:29:06;0.97;;;0.73;;
4748;SDS011;2388;53.582;9.962;2022-10-19T17:31:33;1.03;;;0.70;;
4748;SDS011;2388;53.582;9.962;2022-10-19T17:33:59;2.20;;;1.77;;
4748;SDS011;2388;53.582;9.962;2022-10-19T17:36:27;10.90;;;7.53;;
4748;SDS011;2388;53.582;9.962;2022-10-19T17:38:55;10.77;;;6.97;;
4748;SDS011;2388;53.582;9.962;2022-10-19T17:41:25;15.43;;;7.50;;